CCGS Louis S. St-Laurent — CGBN — position and weather

sailwx.info

Track history (hours):
 
Tides and Currents Weather Stations Pressure Air Temp Water Temp Dewpoint Dewpoint Depression Visibility Wind Speed Wind Dir Waves Ship Positions

Oceanographic research ship CCGS Louis S. St-Laurent (Canada)

Detailed information on ship capabilities available from ARCUS's ALIAS (Arctic Logistics Information and Support) project.

Last reported at 2018-Feb-18 18:00 UTC. Time now 2018-Feb-18 18:47 UTC.
Position N 48°18' W 070°54'.

Length 119.63 m; beam 24.38 m; draft 9.9 m.

MMSI: 316165000.

Wind from 090 at 1 knots

Barometer 1020.5 mb
Air temperature -3.6 ° C
Dewpoint -5.6 ° C

Date/timePositionNaut miles runAvg speedWind from/ knotsBaromVisibWave heightAir tempDewpointWater temp
2018-Feb-18 18:00N 48°18' W 070°54'0 0.0 090 / 11020.5 -3.6-5.6
2018-Feb-18 17:00N 48°18' W 070°54'0 0.0 070 / 21019.5 -3.2-5.8
2018-Feb-18 16:00N 48°18' W 070°54'0 0.0 1019.4 -4.1-6.5
2018-Feb-18 15:00N 48°18' W 070°54'0 0.0 150 / 11018.3 -5.4-8.3
2018-Feb-18 14:00N 48°18' W 070°54'0 0.0 130 / 11017.4 -7.0-10.9
2018-Feb-18 13:00N 48°18' W 070°54'0 0.0 1016.4 -7.1-11.0
2018-Feb-18 12:00N 48°18' W 070°54'0 0.0 270 / 21015.5 -7.1-11.4
2018-Feb-18 11:00N 48°18' W 070°54'0 0.0 300 / 21014.3 -7.7-11.6
2018-Feb-18 10:00N 48°18' W 070°54'0 0.0 120 / 21013.8 -8.5-13.3
2018-Feb-18 09:00N 48°18' W 070°54'0 0.0 110 / 41013.4 -9.0-13.6
2018-Feb-18 08:00N 48°18' W 070°54'0 0.0 120 / 41013.6 -8.6-14.1
2018-Feb-18 07:00N 48°18' W 070°54'0 0.0 120 / 61013.9 -8.2-13.6
2018-Feb-18 06:00N 48°18' W 070°54'0 0.0 120 / 31014.1 -8.2-13.4
2018-Feb-18 05:00N 48°18' W 070°54'4 4.0 090 / 21015.0 -6.2-11.9
2018-Feb-18 04:00N 48°18' W 070°48'0 0.0 070 / 161015.6 -7.1-12.6
2018-Feb-18 03:00N 48°18' W 070°48'0 0.0 070 / 151016.6 -7.1-12.8
2018-Feb-18 02:00N 48°18' W 070°48'0 0.0 070 / 141017.2 -7.0-12.7
2018-Feb-18 01:00N 48°18' W 070°48'0 0.0 070 / 131017.6 -7.6-12.1
2018-Feb-18 00:00N 48°18' W 070°48'0 0.0 070 / 151017.9 -7.5-12.8
2018-Feb-17 23:00N 48°18' W 070°48'0 0.0 070 / 151018.1 -7.1-14.0
2018-Feb-17 22:00N 48°18' W 070°48'0 0.0 070 / 151018.9 -7.1-14.9
2018-Feb-17 21:00N 48°18' W 070°48'0 0.0 070 / 151019.9 -7.3-15.1
2018-Feb-17 20:00N 48°18' W 070°48'7 7.2 070 / 171020.7 -9.0-15.1
2018-Feb-17 19:00N 48°24' W 070°42'4 4.0 160 / 61021.4 -6.6-15.2
2018-Feb-17 18:00N 48°24' W 070°48'0 0.0 100 / 21023.3 -9.3-15.0
2018-Feb-17 17:00N 48°24' W 070°48'7 7.2 050 / 121024.7 -13.2-17.1
2018-Feb-17 16:00N 48°18' W 070°54'17 8.5 080 / 131026.1 -14.2-17.9
2018-Feb-17 14:00N 48°24' W 070°30'1010.0 080 / 41027.4 -19.0-21.5
2018-Feb-17 13:00N 48°18' W 070°18'8 8.0 320 / 41026.9 -18.1-21.3
2018-Feb-17 12:00N 48°18' W 070°06'0 0.0 250 / 51026.4 -17.7-20.9
2018-Feb-17 11:00N 48°18' W 070°06'8 8.0 280 / 51025.3 -16.9-20.5
2018-Feb-17 10:00N 48°18' W 070°18'1010.0 340 / 31024.6 -16.7-20.4
2018-Feb-17 09:00N 48°24' W 070°30'8 8.0 300 / 11023.5 -16.9-20.4
2018-Feb-17 08:00N 48°24' W 070°42'7 7.2 340 / 31022.4 -16.5-20.4
2018-Feb-17 07:00N 48°18' W 070°48'4 4.0 270 / 41022.1 -15.0-19.1
2018-Feb-17 06:00N 48°18' W 070°54'0 0.0 260 / 51021.3 -14.7-18.7
2018-Feb-17 05:00N 48°18' W 070°54'0 0.0 280 / 71020.9 -14.9-20.1
2018-Feb-17 04:00N 48°18' W 070°54'0 0.0 270 / 81020.3 -14.2-19.9
2018-Feb-17 03:00N 48°18' W 070°54'0 0.0 270 / 101018.6 -13.7-19.2
2018-Feb-17 02:00N 48°18' W 070°54'0 0.0 240 / 131016.8 -13.3-19.5
2018-Feb-17 01:00N 48°18' W 070°54'0 0.0 160 / 11015.3 -12.7-18.8
2018-Feb-17 00:00N 48°18' W 070°54'0 0.0 150 / 11014.0 -12.1-18.8
2018-Feb-16 23:00N 48°18' W 070°54'0 0.0 210 / 11012.5 -11.3-18.9
2018-Feb-16 22:00N 48°18' W 070°54'0 0.0 240 / 21010.8 -10.8-19.1
2018-Feb-16 21:00N 48°18' W 070°54'0 0.0 190 / 11009.7 -9.7-18.4
2018-Feb-16 20:00N 48°18' W 070°54'4 4.0 250 / 21008.8 -9.5-19.0
2018-Feb-16 19:00N 48°18' W 070°48'1010.0 260 / 221007.0 -10.7-18.8
2018-Feb-16 18:00N 48°24' W 070°36'8 8.0 280 / 261005.5 -10.0-16.6
2018-Feb-16 17:00N 48°24' W 070°24'1010.0 280 / 271004.9 -9.9-15.1
2018-Feb-16 16:00N 48°18' W 070°12'1010.0 310 / 171005.6 -8.2-12.5
2018-Feb-16 15:00N 48°24' W 070°24'1212.0 280 / 241006.4 -8.6-13.3
2018-Feb-16 14:00N 48°24' W 070°42'4 4.0 300 / 201006.3 -8.3-12.3
2018-Feb-16 13:00N 48°24' W 070°48'0 0.0 270 / 61006.4 -6.7-11.3
2018-Feb-16 12:00N 48°24' W 070°48'0 0.0 290 / 71005.4 -6.1-10.8
2018-Feb-16 11:00N 48°24' W 070°48'0 0.0 290 / 71004.5 -4.5-9.3
2018-Feb-16 10:00N 48°24' W 070°48'0 0.0 280 / 51002.3 -3.2-7.3
2018-Feb-16 09:00N 48°24' W 070°48'0 0.0 280 / 71001.5 -1.6-5.2
2018-Feb-16 08:00N 48°24' W 070°48'0 0.0 280 / 11999.7 -0.2-3.3
2018-Feb-16 07:00N 48°24' W 070°48'0 0.0 280 / 8998.7 1.1-1.0
2018-Feb-16 06:00N 48°24' W 070°48'0 0.0 270 / 8997.3 1.5-0.0
2018-Feb-16 05:00N 48°24' W 070°48'0 0.0 280 / 4996.6 1.9 0.9
2018-Feb-16 04:00N 48°24' W 070°48'0 0.0 996.5 1.1 0.6
2018-Feb-16 03:00N 48°24' W 070°48'0 0.0 260 / 1996.4 1.1 0.4
2018-Feb-16 02:00N 48°24' W 070°48'0 0.0 130 / 2996.9 1.2 0.2
2018-Feb-16 01:00N 48°24' W 070°48'0 0.0 100 / 2996.9 1.5 0.1
2018-Feb-16 00:00N 48°24' W 070°48'0 0.0 110 / 3997.4 1.6 0.3
2018-Feb-15 23:00N 48°24' W 070°48'0 0.0 100 / 3997.5 1.8-0.0
2018-Feb-15 22:00N 48°24' W 070°48'0 0.0 110 / 7997.8 1.3-0.0
2018-Feb-15 21:00N 48°24' W 070°48'0 0.0 120 / 9998.5 1.7-0.5
2018-Feb-15 20:00N 48°24' W 070°48'0 0.0 100 / 7999.8 1.7-0.7
2018-Feb-15 19:00N 48°24' W 070°48'0 0.0 110 / 81001.5 1.6-1.2
2018-Feb-15 18:00N 48°24' W 070°48'0 0.0 180 / 11002.0 4.9-3.2
2018-Feb-15 17:00N 48°24' W 070°48'0 0.0 1003.5 3.9-3.3
2018-Feb-15 16:00N 48°24' W 070°48'0 0.0 080 / 21005.1 2.8-3.8
2018-Feb-15 15:00N 48°24' W 070°48'0 0.0 080 / 51007.0 -0.6-5.4
2018-Feb-15 14:00N 48°24' W 070°48'0 0.0 1007.7 1.1-4.8
2018-Feb-15 13:00N 48°24' W 070°48'0 0.0 1008.0 -0.0-4.5
2018-Feb-15 12:00N 48°24' W 070°48'0 0.0 070 / 41008.5 -2.1-5.1
2018-Feb-15 11:00N 48°24' W 070°48'0 0.0 090 / 21008.5 -0.8-5.4
2018-Feb-15 10:00N 48°24' W 070°48'0 0.0 070 / 11009.1 -2.3-5.1
2018-Feb-15 09:00N 48°24' W 070°48'0 0.0 060 / 31009.0 -2.9-5.0
2018-Feb-15 08:00N 48°24' W 070°48'0 0.0 060 / 21009.4 -2.3-4.4
2018-Feb-15 07:00N 48°24' W 070°48'0 0.0 230 / 21009.9 -2.4-4.4
2018-Feb-15 06:00N 48°24' W 070°48'8 8.0 270 / 11009.7 -2.7-5.8
2018-Feb-15 05:00N 48°24' W 070°36'2512.3 030 / 11010.2 -2.8-6.9
2018-Feb-15 03:00N 48°18' W 070°00'1212.0 190 / 11010.3 -3.1-6.6
2018-Feb-15 02:00N 48°18' W 070°18'7 7.2 130 / 51010.4 -2.6-7.3
2018-Feb-15 01:00N 48°24' W 070°24'1212.0 100 / 51010.8 -2.1-7.9
2018-Feb-15 00:00N 48°24' W 070°42'4 4.0 080 / 11010.2 -1.2-7.2
2018-Feb-14 23:00N 48°24' W 070°48'0 0.0 260 / 21010.2 0.7-7.2
2018-Feb-14 22:00N 48°24' W 070°48'0 0.0 240 / 41009.9 0.6-8.6
2018-Feb-14 20:00N 48°24' W 070°48'16 8.0 290 / 61010.2 0.7-8.9
2018-Feb-14 18:00N 48°24' W 070°24'1313.4 280 / 51011.3 -4.4-7.9
2018-Feb-14 17:00N 48°18' W 070°06'0 0.0 190 / 21012.8 -7.1-10.4
2018-Feb-14 16:00N 48°18' W 070°06'8 8.0 060 / 21014.0 -9.9-13.1
2018-Feb-14 15:00N 48°18' W 070°18'1010.0 120 / 141014.7 -10.8-14.3
2018-Feb-14 14:00N 48°24' W 070°30'1212.0 100 / 81015.5 -11.4-14.5
2018-Feb-14 13:00N 48°24' W 070°48'6 6.0 070 / 91015.8 -10.7-14.0
2018-Feb-14 12:00N 48°18' W 070°48'0 0.0 070 / 121016.0 -10.3-13.8
2018-Feb-14 11:00N 48°18' W 070°48'4 4.0 080 / 121016.1 -10.1-13.8
2018-Feb-14 10:00N 48°18' W 070°54'0 0.0 080 / 91016.5 -10.2-13.2
2018-Feb-14 09:00N 48°18' W 070°54'0 0.0 050 / 71016.9 -10.7-13.6
2018-Feb-14 08:00N 48°18' W 070°54'0 0.0 090 / 151018.7 -10.7-13.8
2018-Feb-14 07:00N 48°18' W 070°54'0 0.0 090 / 141020.5 -11.6-15.1
2018-Feb-14 06:00N 48°18' W 070°54'0 0.0 070 / 101022.6 -11.8-15.6
2018-Feb-14 05:00N 48°18' W 070°54'4 4.0 080 / 151024.1 -12.4-16.6
2018-Feb-14 04:00N 48°18' W 070°48'0 0.0 070 / 141026.3 -13.5-18.2
2018-Feb-14 03:00N 48°18' W 070°48'0 0.0 070 / 111027.9 -13.3-18.1
2018-Feb-14 02:00N 48°18' W 070°48'0 0.0 070 / 91029.3 -13.2-18.2
2018-Feb-14 01:00N 48°18' W 070°48'0 0.0 070 / 101030.6 -12.8-19.0
2018-Feb-14 00:00N 48°18' W 070°48'0 0.0 070 / 41032.4 -13.5-18.2
2018-Feb-13 23:00N 48°18' W 070°48'6 6.0 230 / 21033.7 -14.4-18.9
2018-Feb-13 22:00N 48°24' W 070°48'1212.0 040 / 21034.5 -12.8-20.6
2018-Feb-13 21:00N 48°24' W 070°30'1313.4 250 / 21035.6 -11.4-20.7
2018-Feb-13 20:00N 48°18' W 070°12'1313.4 290 / 111035.9 -10.9-20.1
2018-Feb-13 19:00N 48°12' W 069°54'1313.4 300 / 101037.8 -10.9-19.0
2018-Feb-13 18:00N 48°18' W 070°12'1010.0 300 / 91039.2 -13.2-20.2
2018-Feb-13 17:00N 48°24' W 070°24'8 8.0 280 / 21041.0 -16.8-20.8
2018-Feb-13 16:00N 48°24' W 070°36'1010.0 110 / 31042.3 -18.9-23.7
2018-Feb-13 15:00N 48°18' W 070°48'4 4.0 1043.2 -18.9-22.7
2018-Feb-13 14:00N 48°18' W 070°54'7 7.2 060 / 21043.5 -21.1-24.2
2018-Feb-13 13:00N 48°24' W 070°48'0 0.0 240 / 21043.7 -22.0-25.5
2018-Feb-13 12:00N 48°24' W 070°48'0 0.0 140 / 21043.1 -21.8-25.7
2018-Feb-13 11:00N 48°24' W 070°48'4 4.0 260 / 41042.2 -20.7-25.5
2018-Feb-13 10:00N 48°24' W 070°42'4 4.0 310 / 101041.2 -20.2-25.2
2018-Feb-13 09:00N 48°24' W 070°36'8 8.0 270 / 171040.5 -18.7-23.7
2018-Feb-13 08:00N 48°24' W 070°24'7 7.2 270 / 221039.4 -18.4-23.6
2018-Feb-13 07:00N 48°18' W 070°18'8 8.0 270 / 291036.1 -17.2-24.9
2018-Feb-13 06:00N 48°18' W 070°06'0 0.0 280 / 291036.3 -15.9-21.9
2018-Feb-13 05:00N 48°18' W 070°06'4 4.0 280 / 251033.1 -14.4-21.6
2018-Feb-13 04:00N 48°18' W 070°12'1010.0 290 / 291034.2 -14.1-22.3
2018-Feb-13 03:00N 48°24' W 070°24'1212.0 280 / 191034.3 -13.2-20.3
2018-Feb-13 02:00N 48°24' W 070°42'1010.0 260 / 131033.9 -12.2-19.4
2018-Feb-13 01:00N 48°18' W 070°54'0 0.0 290 / 161032.6 -11.1-17.9
2018-Feb-13 00:00N 48°18' W 070°54'0 0.0 260 / 101031.4 -10.4-17.7
2018-Feb-12 23:00N 48°18' W 070°54'0 0.0 270 / 91030.1 -10.1-17.8
2018-Feb-12 22:00N 48°18' W 070°54'0 0.0 290 / 151028.4 -9.1-18.2
2018-Feb-12 21:00N 48°18' W 070°54'0 0.0 290 / 141026.6 -7.7-16.4
2018-Feb-12 20:00N 48°18' W 070°54'0 0.0 280 / 221024.3 -6.6-15.6
2018-Feb-12 19:00N 48°18' W 070°54'0 0.0 300 / 221022.3 -6.4-12.4
2018-Feb-12 18:00N 48°18' W 070°54'0 0.0 270 / 161021.2 -6.0-10.3
2018-Feb-12 17:00N 48°18' W 070°54'0 0.0 260 / 231020.2 -5.3-12.8
2018-Feb-12 16:00N 48°18' W 070°54'0 0.0 270 / 191019.4 -5.5-11.7
2018-Feb-12 15:00N 48°18' W 070°54'0 0.0 270 / 241017.6 -5.0-12.2
2018-Feb-12 14:00N 48°18' W 070°54'0 0.0 260 / 211016.4 -4.8-12.3
2018-Feb-12 13:00N 48°18' W 070°54'0 0.0 250 / 201015.4 -4.9-11.7
2018-Feb-12 12:00N 48°18' W 070°54'0 0.0 260 / 151014.8 -4.9-10.7
2018-Feb-12 11:00N 48°18' W 070°54'0 0.0 270 / 191013.0 -4.2-9.6
2018-Feb-12 10:00N 48°18' W 070°54'0 0.0 270 / 91011.8 -3.9-8.4
2018-Feb-12 09:00N 48°18' W 070°54'0 0.0 240 / 21010.0 -4.2-7.0
2018-Feb-12 08:00N 48°18' W 070°54'0 0.0 330 / 41008.3 -4.1-6.3
2018-Feb-12 07:00N 48°18' W 070°54'0 0.0 120 / 31006.2 -5.3-6.4
2018-Feb-12 06:00N 48°18' W 070°54'0 0.0 070 / 81004.7 -5.4-6.3
2018-Feb-12 05:00N 48°18' W 070°54'0 0.0 090 / 181002.3 -5.7-6.7
2018-Feb-12 04:00N 48°18' W 070°54'0 0.0 090 / 221002.1 -6.1-7.4
2018-Feb-12 03:00N 48°18' W 070°54'0 0.0 090 / 301002.5 -6.8-8.2
2018-Feb-12 02:00N 48°18' W 070°54'0 0.0 090 / 281004.9 -7.1-9.2
2018-Feb-12 01:00N 48°18' W 070°54'0 0.0 100 / 231008.2 -7.4-10.3
2018-Feb-12 00:00N 48°18' W 070°54'0 0.0 100 / 171011.1 -7.2-10.5
2018-Feb-11 19:00N 48°18' W 070°54'0 0.0 090 / 221021.0 -7.2-11.2
2018-Feb-11 18:00N 48°18' W 070°54'0 0.0 090 / 221022.6 -7.8-12.0
2018-Feb-11 17:00N 48°18' W 070°54'0 0.0 090 / 211023.8 -8.5-12.6
2018-Feb-11 16:00N 48°18' W 070°54'0 0.0 090 / 181025.9 -9.3-12.8
2018-Feb-11 15:00N 48°18' W 070°54'0 0.0 110 / 31027.0 -13.2-15.2
2018-Feb-11 14:00N 48°18' W 070°54'0 0.0 060 / 11027.6 -13.6-15.4
2018-Feb-11 13:00N 48°18' W 070°54'0 0.0 040 / 11027.7 -14.9-16.6
2018-Feb-11 12:00N 48°18' W 070°54'7 7.2 330 / 31027.5 -14.1-15.6
2018-Feb-11 11:00N 48°24' W 070°48'1212.0 020 / 11026.7 -12.7-14.4
2018-Feb-11 10:00N 48°24' W 070°30'1010.0 280 / 61027.0 -11.0-12.8
2018-Feb-11 09:00N 48°18' W 070°18'4 2.0 300 / 61025.4 -10.4-12.4
2018-Feb-11 07:00N 48°18' W 070°12'1313.4 310 / 91024.9 -10.6-12.7
2018-Feb-11 06:00N 48°24' W 070°30'8 8.0 270 / 51024.3 -10.7-12.5
2018-Feb-11 05:00N 48°24' W 070°42'1010.0 280 / 31023.9 -11.1-12.6
2018-Feb-11 04:00N 48°18' W 070°54'0 0.0 270 / 21023.2 -9.5-11.5
2018-Feb-11 03:00N 48°18' W 070°54'0 0.0 070 / 11022.8 -9.7-11.9
2018-Feb-11 02:00N 48°18' W 070°54'0 0.0 360 / 21023.0 -8.1-11.1
2018-Feb-11 01:00N 48°18' W 070°54'0 0.0 100 / 11022.8 -8.8-11.2
2018-Feb-11 00:00N 48°18' W 070°54'4 4.0 210 / 21022.5 -8.5-11.3
2018-Feb-10 23:00N 48°18' W 070°48'4 4.0 050 / 21022.0 -9.5-12.9
2018-Feb-10 22:00N 48°18' W 070°54'0 0.0 320 / 11021.5 -8.7-12.5
2018-Feb-10 21:00N 48°18' W 070°54'0 0.0 340 / 21020.8 -9.9-13.2
2018-Feb-10 20:00N 48°18' W 070°54'17 8.5 170 / 11021.1 -9.6-14.1
2018-Feb-10 18:00N 48°24' W 070°30'1010.0 110 / 31021.6 -12.7-15.8
2018-Feb-10 17:00N 48°18' W 070°18'8 8.0 150 / 41022.4 -14.1-17.3
2018-Feb-10 16:00N 48°18' W 070°06'0 0.0 280 / 21024.3 -12.8-16.8
2018-Feb-10 15:00N 48°18' W 070°06'4 4.0 130 / 41024.6 -16.9-20.0
2018-Feb-10 14:00N 48°18' W 070°12'0 0.0 120 / 21025.7 -19.2-22.2
2018-Feb-10 13:00N 48°18' W 070°12'0 0.0 160 / 41026.4 -20.6-23.5
2018-Feb-10 12:00N 48°18' W 070°12'0 0.0 160 / 21026.5 -21.0-23.8
2018-Feb-10 11:00N 48°18' W 070°12'0 0.0 160 / 31027.0 -20.8-23.6
2018-Feb-10 10:00N 48°18' W 070°12'0 0.0 160 / 31027.7 -21.6-24.2
2018-Feb-10 09:00N 48°18' W 070°12'0 0.0 150 / 21028.1 -21.4-24.1
2018-Feb-10 08:00N 48°18' W 070°12'0 0.0 180 / 21028.6 -22.5-25.2
2018-Feb-10 07:00N 48°18' W 070°12'0 0.0 170 / 11029.1 -22.2-25.0
2018-Feb-10 06:00N 48°18' W 070°12'0 0.0 220 / 31029.3 -22.2-25.0
2018-Feb-10 05:00N 48°18' W 070°12'0 0.0 190 / 11029.1 -22.0-24.6
2018-Feb-10 04:00N 48°18' W 070°12'0 0.0 220 / 11029.2 -20.9-23.3
2018-Feb-10 03:00N 48°18' W 070°12'0 0.0 150 / 31029.4 -20.3-22.8
2018-Feb-10 02:00N 48°18' W 070°12'1010.0 200 / 31029.5 -19.5-22.0
2018-Feb-10 01:00N 48°24' W 070°24'1212.0 110 / 71029.1 -18.2-21.2
2018-Feb-10 00:00N 48°24' W 070°42'4 4.0 100 / 81029.0 -17.8-20.6
2018-Feb-09 23:00N 48°24' W 070°48'0 0.0 1029.4 -16.9-20.1
2018-Feb-09 22:00N 48°24' W 070°48'0 0.0 1029.2 -14.6-18.7
2018-Feb-09 21:00N 48°24' W 070°48'0 0.0 1029.2 -13.1-18.2
2018-Feb-09 20:00N 48°24' W 070°48'0 0.0 120 / 41029.0 -12.9-19.0
2018-Feb-09 19:00N 48°24' W 070°48'0 0.0 270 / 31028.9 -12.4-19.5
2018-Feb-09 18:00N 48°24' W 070°48'0 0.0 280 / 21029.6 -11.9-18.5
2018-Feb-09 17:00N 48°24' W 070°48'0 0.0 280 / 21030.3 -12.7-19.5
2018-Feb-09 16:00N 48°24' W 070°48'0 0.0 270 / 21030.3 -13.7-19.3
2018-Feb-09 15:00N 48°24' W 070°48'0 0.0 280 / 81029.9 -15.9-20.3
2018-Feb-09 14:00N 48°24' W 070°48'0 0.0 280 / 51029.0 -15.3-19.0
2018-Feb-09 13:00N 48°24' W 070°48'0 0.0 280 / 11028.2 -14.6-17.5
2018-Feb-09 12:00N 48°24' W 070°48'0 0.0 270 / 51026.8 -14.7-17.0
2018-Feb-09 11:00N 48°24' W 070°48'0 0.0 260 / 11025.4 -14.5-16.4
2018-Feb-09 10:00N 48°24' W 070°48'0 0.0 020 / 11024.9 -14.2-16.1
2018-Feb-09 09:00N 48°24' W 070°48'0 0.0 070 / 31024.0 -14.5-16.4
2018-Feb-09 08:00N 48°24' W 070°48'0 0.0 140 / 41023.7 -14.1-16.7
2018-Feb-09 07:00N 48°24' W 070°48'0 0.0 110 / 11023.9 -15.6-17.5
2018-Feb-09 06:00N 48°24' W 070°48'0 0.0 220 / 11024.0 -15.3-17.3
2018-Feb-09 05:00N 48°24' W 070°48'0 0.0 260 / 11023.9 -14.9-17.0
2018-Feb-09 04:00N 48°24' W 070°48'0 0.0 120 / 31023.9 -14.5-17.0
2018-Feb-09 03:00N 48°24' W 070°48'0 0.0 1023.7 -15.3-17.5
2018-Feb-09 02:00N 48°24' W 070°48'0 0.0 1023.6 -14.7-17.3
2018-Feb-09 01:00N 48°24' W 070°48'1212.0 200 / 21023.4 -15.0-17.8
2018-Feb-09 00:00N 48°24' W 070°30'1313.4 310 / 21023.6 -14.2-18.1
2018-Feb-08 23:00N 48°18' W 070°12'4 4.0 270 / 81022.7 -12.9-17.3
2018-Feb-08 22:00N 48°18' W 070°06'8 8.0 280 / 71022.4 -12.8-17.7
2018-Feb-08 21:00N 48°18' W 070°18'1313.4 300 / 71022.3 -11.9-17.7
2018-Feb-08 20:00N 48°24' W 070°36'8 8.0 260 / 111022.7 -10.6-17.5
2018-Feb-08 19:00N 48°24' W 070°48'0 0.0 260 / 61023.3 -9.6-15.9
2018-Feb-08 18:00N 48°24' W 070°48'   310 / 41023.9 -11.3-16.0
Track history (hours):
 
Tides and Currents Weather Stations Pressure Air Temp Water Temp Dewpoint Dewpoint Depression Visibility Wind Speed Wind Dir Waves Ship Positions

Oceanographic research ship CCGS Louis S. St-Laurent (Canada)

Detailed information on ship capabilities available from ARCUS's ALIAS (Arctic Logistics Information and Support) project.

Last reported at 2018-Feb-18 18:00 UTC. Time now 2018-Feb-18 18:47 UTC.
Position N 48°18' W 070°54'.

Length 119.63 m; beam 24.38 m; draft 9.9 m.

MMSI: 316165000.

Wind from 090 at 1 knots

Barometer 1020.5 mb
Air temperature -3.6 ° C
Dewpoint -5.6 ° C

Date/timePositionNaut miles runAvg speedWind from/ knotsBaromVisibWave heightAir tempDewpointWater temp
2018-Feb-18 18:00N 48°18' W 070°54'0 0.0 090 / 11020.5 -3.6-5.6
2018-Feb-18 17:00N 48°18' W 070°54'0 0.0 070 / 21019.5 -3.2-5.8
2018-Feb-18 16:00N 48°18' W 070°54'0 0.0 1019.4 -4.1-6.5
2018-Feb-18 15:00N 48°18' W 070°54'0 0.0 150 / 11018.3 -5.4-8.3
2018-Feb-18 14:00N 48°18' W 070°54'0 0.0 130 / 11017.4 -7.0-10.9
2018-Feb-18 13:00N 48°18' W 070°54'0 0.0 1016.4 -7.1-11.0
2018-Feb-18 12:00N 48°18' W 070°54'0 0.0 270 / 21015.5 -7.1-11.4
2018-Feb-18 11:00N 48°18' W 070°54'0 0.0 300 / 21014.3 -7.7-11.6
2018-Feb-18 10:00N 48°18' W 070°54'0 0.0 120 / 21013.8 -8.5-13.3
2018-Feb-18 09:00N 48°18' W 070°54'0 0.0 110 / 41013.4 -9.0-13.6
2018-Feb-18 08:00N 48°18' W 070°54'0 0.0 120 / 41013.6 -8.6-14.1
2018-Feb-18 07:00N 48°18' W 070°54'0 0.0 120 / 61013.9 -8.2-13.6
2018-Feb-18 06:00N 48°18' W 070°54'0 0.0 120 / 31014.1 -8.2-13.4
2018-Feb-18 05:00N 48°18' W 070°54'4 4.0 090 / 21015.0 -6.2-11.9
2018-Feb-18 04:00N 48°18' W 070°48'0 0.0 070 / 161015.6 -7.1-12.6
2018-Feb-18 03:00N 48°18' W 070°48'0 0.0 070 / 151016.6 -7.1-12.8
2018-Feb-18 02:00N 48°18' W 070°48'0 0.0 070 / 141017.2 -7.0-12.7
2018-Feb-18 01:00N 48°18' W 070°48'0 0.0 070 / 131017.6 -7.6-12.1
2018-Feb-18 00:00N 48°18' W 070°48'0 0.0 070 / 151017.9 -7.5-12.8
2018-Feb-17 23:00N 48°18' W 070°48'0 0.0 070 / 151018.1 -7.1-14.0
2018-Feb-17 22:00N 48°18' W 070°48'0 0.0 070 / 151018.9 -7.1-14.9
2018-Feb-17 21:00N 48°18' W 070°48'0 0.0 070 / 151019.9 -7.3-15.1
2018-Feb-17 20:00N 48°18' W 070°48'7 7.2 070 / 171020.7 -9.0-15.1
2018-Feb-17 19:00N 48°24' W 070°42'4 4.0 160 / 61021.4 -6.6-15.2
2018-Feb-17 18:00N 48°24' W 070°48'0 0.0 100 / 21023.3 -9.3-15.0
2018-Feb-17 17:00N 48°24' W 070°48'7 7.2 050 / 121024.7 -13.2-17.1
2018-Feb-17 16:00N 48°18' W 070°54'17 8.5 080 / 131026.1 -14.2-17.9
2018-Feb-17 14:00N 48°24' W 070°30'1010.0 080 / 41027.4 -19.0-21.5
2018-Feb-17 13:00N 48°18' W 070°18'8 8.0 320 / 41026.9 -18.1-21.3
2018-Feb-17 12:00N 48°18' W 070°06'0 0.0 250 / 51026.4 -17.7-20.9
2018-Feb-17 11:00N 48°18' W 070°06'8 8.0 280 / 51025.3 -16.9-20.5
2018-Feb-17 10:00N 48°18' W 070°18'1010.0 340 / 31024.6 -16.7-20.4
2018-Feb-17 09:00N 48°24' W 070°30'8 8.0 300 / 11023.5 -16.9-20.4
2018-Feb-17 08:00N 48°24' W 070°42'7 7.2 340 / 31022.4 -16.5-20.4
2018-Feb-17 07:00N 48°18' W 070°48'4 4.0 270 / 41022.1 -15.0-19.1
2018-Feb-17 06:00N 48°18' W 070°54'0 0.0 260 / 51021.3 -14.7-18.7
2018-Feb-17 05:00N 48°18' W 070°54'0 0.0 280 / 71020.9 -14.9-20.1
2018-Feb-17 04:00N 48°18' W 070°54'0 0.0 270 / 81020.3 -14.2-19.9
2018-Feb-17 03:00N 48°18' W 070°54'0 0.0 270 / 101018.6 -13.7-19.2
2018-Feb-17 02:00N 48°18' W 070°54'0 0.0 240 / 131016.8 -13.3-19.5
2018-Feb-17 01:00N 48°18' W 070°54'0 0.0 160 / 11015.3 -12.7-18.8
2018-Feb-17 00:00N 48°18' W 070°54'0 0.0 150 / 11014.0 -12.1-18.8
2018-Feb-16 23:00N 48°18' W 070°54'0 0.0 210 / 11012.5 -11.3-18.9
2018-Feb-16 22:00N 48°18' W 070°54'0 0.0 240 / 21010.8 -10.8-19.1
2018-Feb-16 21:00N 48°18' W 070°54'0 0.0 190 / 11009.7 -9.7-18.4
2018-Feb-16 20:00N 48°18' W 070°54'4 4.0 250 / 21008.8 -9.5-19.0
2018-Feb-16 19:00N 48°18' W 070°48'1010.0 260 / 221007.0 -10.7-18.8
2018-Feb-16 18:00N 48°24' W 070°36'8 8.0 280 / 261005.5 -10.0-16.6
2018-Feb-16 17:00N 48°24' W 070°24'1010.0 280 / 271004.9 -9.9-15.1
2018-Feb-16 16:00N 48°18' W 070°12'1010.0 310 / 171005.6 -8.2-12.5
2018-Feb-16 15:00N 48°24' W 070°24'1212.0 280 / 241006.4 -8.6-13.3
2018-Feb-16 14:00N 48°24' W 070°42'4 4.0 300 / 201006.3 -8.3-12.3
2018-Feb-16 13:00N 48°24' W 070°48'0 0.0 270 / 61006.4 -6.7-11.3
2018-Feb-16 12:00N 48°24' W 070°48'0 0.0 290 / 71005.4 -6.1-10.8
2018-Feb-16 11:00N 48°24' W 070°48'0 0.0 290 / 71004.5 -4.5-9.3
2018-Feb-16 10:00N 48°24' W 070°48'0 0.0 280 / 51002.3 -3.2-7.3
2018-Feb-16 09:00N 48°24' W 070°48'0 0.0 280 / 71001.5 -1.6-5.2
2018-Feb-16 08:00N 48°24' W 070°48'0 0.0 280 / 11999.7 -0.2-3.3
2018-Feb-16 07:00N 48°24' W 070°48'0 0.0 280 / 8998.7 1.1-1.0
2018-Feb-16 06:00N 48°24' W 070°48'0 0.0 270 / 8997.3 1.5-0.0
2018-Feb-16 05:00N 48°24' W 070°48'0 0.0 280 / 4996.6 1.9 0.9
2018-Feb-16 04:00N 48°24' W 070°48'0 0.0 996.5 1.1 0.6
2018-Feb-16 03:00N 48°24' W 070°48'0 0.0 260 / 1996.4 1.1 0.4
2018-Feb-16 02:00N 48°24' W 070°48'0 0.0 130 / 2996.9 1.2 0.2
2018-Feb-16 01:00N 48°24' W 070°48'0 0.0 100 / 2996.9 1.5 0.1
2018-Feb-16 00:00N 48°24' W 070°48'0 0.0 110 / 3997.4 1.6 0.3
2018-Feb-15 23:00N 48°24' W 070°48'0 0.0 100 / 3997.5 1.8-0.0
2018-Feb-15 22:00N 48°24' W 070°48'0 0.0 110 / 7997.8 1.3-0.0
2018-Feb-15 21:00N 48°24' W 070°48'0 0.0 120 / 9998.5 1.7-0.5
2018-Feb-15 20:00N 48°24' W 070°48'0 0.0 100 / 7999.8 1.7-0.7
2018-Feb-15 19:00N 48°24' W 070°48'0 0.0 110 / 81001.5 1.6-1.2
2018-Feb-15 18:00N 48°24' W 070°48'0 0.0 180 / 11002.0 4.9-3.2
2018-Feb-15 17:00N 48°24' W 070°48'0 0.0 1003.5 3.9-3.3
2018-Feb-15 16:00N 48°24' W 070°48'0 0.0 080 / 21005.1 2.8-3.8
2018-Feb-15 15:00N 48°24' W 070°48'0 0.0 080 / 51007.0 -0.6-5.4
2018-Feb-15 14:00N 48°24' W 070°48'0 0.0 1007.7 1.1-4.8
2018-Feb-15 13:00N 48°24' W 070°48'0 0.0 1008.0 -0.0-4.5
2018-Feb-15 12:00N 48°24' W 070°48'0 0.0 070 / 41008.5 -2.1-5.1
2018-Feb-15 11:00N 48°24' W 070°48'0 0.0 090 / 21008.5 -0.8-5.4
2018-Feb-15 10:00N 48°24' W 070°48'0 0.0 070 / 11009.1 -2.3-5.1
2018-Feb-15 09:00N 48°24' W 070°48'0 0.0 060 / 31009.0 -2.9-5.0
2018-Feb-15 08:00N 48°24' W 070°48'0 0.0 060 / 21009.4 -2.3-4.4
2018-Feb-15 07:00N 48°24' W 070°48'0 0.0 230 / 21009.9 -2.4-4.4
2018-Feb-15 06:00N 48°24' W 070°48'8 8.0 270 / 11009.7 -2.7-5.8
2018-Feb-15 05:00N 48°24' W 070°36'2512.3 030 / 11010.2 -2.8-6.9
2018-Feb-15 03:00N 48°18' W 070°00'1212.0 190 / 11010.3 -3.1-6.6
2018-Feb-15 02:00N 48°18' W 070°18'7 7.2 130 / 51010.4 -2.6-7.3
2018-Feb-15 01:00N 48°24' W 070°24'1212.0 100 / 51010.8 -2.1-7.9
2018-Feb-15 00:00N 48°24' W 070°42'4 4.0 080 / 11010.2 -1.2-7.2
2018-Feb-14 23:00N 48°24' W 070°48'0 0.0 260 / 21010.2 0.7-7.2
2018-Feb-14 22:00N 48°24' W 070°48'0 0.0 240 / 41009.9 0.6-8.6
2018-Feb-14 20:00N 48°24' W 070°48'16 8.0 290 / 61010.2 0.7-8.9
2018-Feb-14 18:00N 48°24' W 070°24'1313.4 280 / 51011.3 -4.4-7.9
2018-Feb-14 17:00N 48°18' W 070°06'0 0.0 190 / 21012.8 -7.1-10.4
2018-Feb-14 16:00N 48°18' W 070°06'8 8.0 060 / 21014.0 -9.9-13.1
2018-Feb-14 15:00N 48°18' W 070°18'1010.0 120 / 141014.7 -10.8-14.3
2018-Feb-14 14:00N 48°24' W 070°30'1212.0 100 / 81015.5 -11.4-14.5
2018-Feb-14 13:00N 48°24' W 070°48'6 6.0 070 / 91015.8 -10.7-14.0
2018-Feb-14 12:00N 48°18' W 070°48'0 0.0 070 / 121016.0 -10.3-13.8
2018-Feb-14 11:00N 48°18' W 070°48'4 4.0 080 / 121016.1 -10.1-13.8
2018-Feb-14 10:00N 48°18' W 070°54'0 0.0 080 / 91016.5 -10.2-13.2
2018-Feb-14 09:00N 48°18' W 070°54'0 0.0 050 / 71016.9 -10.7-13.6
2018-Feb-14 08:00N 48°18' W 070°54'0 0.0 090 / 151018.7 -10.7-13.8
2018-Feb-14 07:00N 48°18' W 070°54'0 0.0 090 / 141020.5 -11.6-15.1
2018-Feb-14 06:00N 48°18' W 070°54'0 0.0 070 / 101022.6 -11.8-15.6
2018-Feb-14 05:00N 48°18' W 070°54'4 4.0 080 / 151024.1 -12.4-16.6
2018-Feb-14 04:00N 48°18' W 070°48'0 0.0 070 / 141026.3 -13.5-18.2
2018-Feb-14 03:00N 48°18' W 070°48'0 0.0 070 / 111027.9 -13.3-18.1
2018-Feb-14 02:00N 48°18' W 070°48'0 0.0 070 / 91029.3 -13.2-18.2
2018-Feb-14 01:00N 48°18' W 070°48'0 0.0 070 / 101030.6 -12.8-19.0
2018-Feb-14 00:00N 48°18' W 070°48'0 0.0 070 / 41032.4 -13.5-18.2
2018-Feb-13 23:00N 48°18' W 070°48'6 6.0 230 / 21033.7 -14.4-18.9
2018-Feb-13 22:00N 48°24' W 070°48'1212.0 040 / 21034.5 -12.8-20.6
2018-Feb-13 21:00N 48°24' W 070°30'1313.4 250 / 21035.6 -11.4-20.7
2018-Feb-13 20:00N 48°18' W 070°12'1313.4 290 / 111035.9 -10.9-20.1
2018-Feb-13 19:00N 48°12' W 069°54'1313.4 300 / 101037.8 -10.9-19.0
2018-Feb-13 18:00N 48°18' W 070°12'1010.0 300 / 91039.2 -13.2-20.2
2018-Feb-13 17:00N 48°24' W 070°24'8 8.0 280 / 21041.0 -16.8-20.8
2018-Feb-13 16:00N 48°24' W 070°36'1010.0 110 / 31042.3 -18.9-23.7
2018-Feb-13 15:00N 48°18' W 070°48'4 4.0 1043.2 -18.9-22.7
2018-Feb-13 14:00N 48°18' W 070°54'7 7.2 060 / 21043.5 -21.1-24.2
2018-Feb-13 13:00N 48°24' W 070°48'0 0.0 240 / 21043.7 -22.0-25.5
2018-Feb-13 12:00N 48°24' W 070°48'0 0.0 140 / 21043.1 -21.8-25.7
2018-Feb-13 11:00N 48°24' W 070°48'4 4.0 260 / 41042.2 -20.7-25.5
2018-Feb-13 10:00N 48°24' W 070°42'4 4.0 310 / 101041.2 -20.2-25.2
2018-Feb-13 09:00N 48°24' W 070°36'8 8.0 270 / 171040.5 -18.7-23.7
2018-Feb-13 08:00N 48°24' W 070°24'7 7.2 270 / 221039.4 -18.4-23.6
2018-Feb-13 07:00N 48°18' W 070°18'8 8.0 270 / 291036.1 -17.2-24.9
2018-Feb-13 06:00N 48°18' W 070°06'0 0.0 280 / 291036.3 -15.9-21.9
2018-Feb-13 05:00N 48°18' W 070°06'4 4.0 280 / 251033.1 -14.4-21.6
2018-Feb-13 04:00N 48°18' W 070°12'1010.0 290 / 291034.2 -14.1-22.3
2018-Feb-13 03:00N 48°24' W 070°24'1212.0 280 / 191034.3 -13.2-20.3
2018-Feb-13 02:00N 48°24' W 070°42'1010.0 260 / 131033.9 -12.2-19.4
2018-Feb-13 01:00N 48°18' W 070°54'0 0.0 290 / 161032.6 -11.1-17.9
2018-Feb-13 00:00N 48°18' W 070°54'0 0.0 260 / 101031.4 -10.4-17.7
2018-Feb-12 23:00N 48°18' W 070°54'0 0.0 270 / 91030.1 -10.1-17.8
2018-Feb-12 22:00N 48°18' W 070°54'0 0.0 290 / 151028.4 -9.1-18.2
2018-Feb-12 21:00N 48°18' W 070°54'0 0.0 290 / 141026.6 -7.7-16.4
2018-Feb-12 20:00N 48°18' W 070°54'0 0.0 280 / 221024.3 -6.6-15.6
2018-Feb-12 19:00N 48°18' W 070°54'0 0.0 300 / 221022.3 -6.4-12.4
2018-Feb-12 18:00N 48°18' W 070°54'0 0.0 270 / 161021.2 -6.0-10.3
2018-Feb-12 17:00N 48°18' W 070°54'0 0.0 260 / 231020.2 -5.3-12.8
2018-Feb-12 16:00N 48°18' W 070°54'0 0.0 270 / 191019.4 -5.5-11.7
2018-Feb-12 15:00N 48°18' W 070°54'0 0.0 270 / 241017.6 -5.0-12.2
2018-Feb-12 14:00N 48°18' W 070°54'0 0.0 260 / 211016.4 -4.8-12.3
2018-Feb-12 13:00N 48°18' W 070°54'0 0.0 250 / 201015.4 -4.9-11.7
2018-Feb-12 12:00N 48°18' W 070°54'0 0.0 260 / 151014.8 -4.9-10.7
2018-Feb-12 11:00N 48°18' W 070°54'0 0.0 270 / 191013.0 -4.2-9.6
2018-Feb-12 10:00N 48°18' W 070°54'0 0.0 270 / 91011.8 -3.9-8.4
2018-Feb-12 09:00N 48°18' W 070°54'0 0.0 240 / 21010.0 -4.2-7.0
2018-Feb-12 08:00N 48°18' W 070°54'0 0.0 330 / 41008.3 -4.1-6.3
2018-Feb-12 07:00N 48°18' W 070°54'0 0.0 120 / 31006.2 -5.3-6.4
2018-Feb-12 06:00N 48°18' W 070°54'0 0.0 070 / 81004.7 -5.4-6.3
2018-Feb-12 05:00N 48°18' W 070°54'0 0.0 090 / 181002.3 -5.7-6.7
2018-Feb-12 04:00N 48°18' W 070°54'0 0.0 090 / 221002.1 -6.1-7.4
2018-Feb-12 03:00N 48°18' W 070°54'0 0.0 090 / 301002.5 -6.8-8.2
2018-Feb-12 02:00N 48°18' W 070°54'0 0.0 090 / 281004.9 -7.1-9.2
2018-Feb-12 01:00N 48°18' W 070°54'0 0.0 100 / 231008.2 -7.4-10.3
2018-Feb-12 00:00N 48°18' W 070°54'0 0.0 100 / 171011.1 -7.2-10.5
2018-Feb-11 19:00N 48°18' W 070°54'0 0.0 090 / 221021.0 -7.2-11.2
2018-Feb-11 18:00N 48°18' W 070°54'0 0.0 090 / 221022.6 -7.8-12.0
2018-Feb-11 17:00N 48°18' W 070°54'0 0.0 090 / 211023.8 -8.5-12.6
2018-Feb-11 16:00N 48°18' W 070°54'0 0.0 090 / 181025.9 -9.3-12.8
2018-Feb-11 15:00N 48°18' W 070°54'0 0.0 110 / 31027.0 -13.2-15.2
2018-Feb-11 14:00N 48°18' W 070°54'0 0.0 060 / 11027.6 -13.6-15.4
2018-Feb-11 13:00N 48°18' W 070°54'0 0.0 040 / 11027.7 -14.9-16.6
2018-Feb-11 12:00N 48°18' W 070°54'7 7.2 330 / 31027.5 -14.1-15.6
2018-Feb-11 11:00N 48°24' W 070°48'1212.0 020 / 11026.7 -12.7-14.4
2018-Feb-11 10:00N 48°24' W 070°30'1010.0 280 / 61027.0 -11.0-12.8
2018-Feb-11 09:00N 48°18' W 070°18'4 2.0 300 / 61025.4 -10.4-12.4
2018-Feb-11 07:00N 48°18' W 070°12'1313.4 310 / 91024.9 -10.6-12.7
2018-Feb-11 06:00N 48°24' W 070°30'8 8.0 270 / 51024.3 -10.7-12.5
2018-Feb-11 05:00N 48°24' W 070°42'1010.0 280 / 31023.9 -11.1-12.6
2018-Feb-11 04:00N 48°18' W 070°54'0 0.0 270 / 21023.2 -9.5-11.5
2018-Feb-11 03:00N 48°18' W 070°54'0 0.0 070 / 11022.8 -9.7-11.9
2018-Feb-11 02:00N 48°18' W 070°54'0 0.0 360 / 21023.0 -8.1-11.1
2018-Feb-11 01:00N 48°18' W 070°54'0 0.0 100 / 11022.8 -8.8-11.2
2018-Feb-11 00:00N 48°18' W 070°54'4 4.0 210 / 21022.5 -8.5-11.3
2018-Feb-10 23:00N 48°18' W 070°48'4 4.0 050 / 21022.0 -9.5-12.9
2018-Feb-10 22:00N 48°18' W 070°54'0 0.0 320 / 11021.5 -8.7-12.5
2018-Feb-10 21:00N 48°18' W 070°54'0 0.0 340 / 21020.8 -9.9-13.2
2018-Feb-10 20:00N 48°18' W 070°54'17 8.5 170 / 11021.1 -9.6-14.1
2018-Feb-10 18:00N 48°24' W 070°30'1010.0 110 / 31021.6 -12.7-15.8
2018-Feb-10 17:00N 48°18' W 070°18'8 8.0 150 / 41022.4 -14.1-17.3
2018-Feb-10 16:00N 48°18' W 070°06'0 0.0 280 / 21024.3 -12.8-16.8
2018-Feb-10 15:00N 48°18' W 070°06'4 4.0 130 / 41024.6 -16.9-20.0
2018-Feb-10 14:00N 48°18' W 070°12'0 0.0 120 / 21025.7 -19.2-22.2
2018-Feb-10 13:00N 48°18' W 070°12'0 0.0 160 / 41026.4 -20.6-23.5
2018-Feb-10 12:00N 48°18' W 070°12'0 0.0 160 / 21026.5 -21.0-23.8
2018-Feb-10 11:00N 48°18' W 070°12'0 0.0 160 / 31027.0 -20.8-23.6
2018-Feb-10 10:00N 48°18' W 070°12'0 0.0 160 / 31027.7 -21.6-24.2
2018-Feb-10 09:00N 48°18' W 070°12'0 0.0 150 / 21028.1 -21.4-24.1
2018-Feb-10 08:00N 48°18' W 070°12'0 0.0 180 / 21028.6 -22.5-25.2
2018-Feb-10 07:00N 48°18' W 070°12'0 0.0 170 / 11029.1 -22.2-25.0
2018-Feb-10 06:00N 48°18' W 070°12'0 0.0 220 / 31029.3 -22.2-25.0
2018-Feb-10 05:00N 48°18' W 070°12'0 0.0 190 / 11029.1 -22.0-24.6
2018-Feb-10 04:00N 48°18' W 070°12'0 0.0 220 / 11029.2 -20.9-23.3
2018-Feb-10 03:00N 48°18' W 070°12'0 0.0 150 / 31029.4 -20.3-22.8
2018-Feb-10 02:00N 48°18' W 070°12'1010.0 200 / 31029.5 -19.5-22.0
2018-Feb-10 01:00N 48°24' W 070°24'1212.0 110 / 71029.1 -18.2-21.2
2018-Feb-10 00:00N 48°24' W 070°42'4 4.0 100 / 81029.0 -17.8-20.6
2018-Feb-09 23:00N 48°24' W 070°48'0 0.0 1029.4 -16.9-20.1
2018-Feb-09 22:00N 48°24' W 070°48'0 0.0 1029.2 -14.6-18.7
2018-Feb-09 21:00N 48°24' W 070°48'0 0.0 1029.2 -13.1-18.2
2018-Feb-09 20:00N 48°24' W 070°48'0 0.0 120 / 41029.0 -12.9-19.0
2018-Feb-09 19:00N 48°24' W 070°48'0 0.0 270 / 31028.9 -12.4-19.5
2018-Feb-09 18:00N 48°24' W 070°48'0 0.0 280 / 21029.6 -11.9-18.5
2018-Feb-09 17:00N 48°24' W 070°48'0 0.0 280 / 21030.3 -12.7-19.5
2018-Feb-09 16:00N 48°24' W 070°48'0 0.0 270 / 21030.3 -13.7-19.3
2018-Feb-09 15:00N 48°24' W 070°48'0 0.0 280 / 81029.9 -15.9-20.3
2018-Feb-09 14:00N 48°24' W 070°48'0 0.0 280 / 51029.0 -15.3-19.0
2018-Feb-09 13:00N 48°24' W 070°48'0 0.0 280 / 11028.2 -14.6-17.5
2018-Feb-09 12:00N 48°24' W 070°48'0 0.0 270 / 51026.8 -14.7-17.0
2018-Feb-09 11:00N 48°24' W 070°48'0 0.0 260 / 11025.4 -14.5-16.4
2018-Feb-09 10:00N 48°24' W 070°48'0 0.0 020 / 11024.9 -14.2-16.1
2018-Feb-09 09:00N 48°24' W 070°48'0 0.0 070 / 31024.0 -14.5-16.4
2018-Feb-09 08:00N 48°24' W 070°48'0 0.0 140 / 41023.7 -14.1-16.7
2018-Feb-09 07:00N 48°24' W 070°48'0 0.0 110 / 11023.9 -15.6-17.5
2018-Feb-09 06:00N 48°24' W 070°48'0 0.0 220 / 11024.0 -15.3-17.3
2018-Feb-09 05:00N 48°24' W 070°48'0 0.0 260 / 11023.9 -14.9-17.0
2018-Feb-09 04:00N 48°24' W 070°48'0 0.0 120 / 31023.9 -14.5-17.0
2018-Feb-09 03:00N 48°24' W 070°48'0 0.0 1023.7 -15.3-17.5
2018-Feb-09 02:00N 48°24' W 070°48'0 0.0 1023.6 -14.7-17.3
2018-Feb-09 01:00N 48°24' W 070°48'1212.0 200 / 21023.4 -15.0-17.8
2018-Feb-09 00:00N 48°24' W 070°30'1313.4 310 / 21023.6 -14.2-18.1
2018-Feb-08 23:00N 48°18' W 070°12'4 4.0 270 / 81022.7 -12.9-17.3
2018-Feb-08 22:00N 48°18' W 070°06'8 8.0 280 / 71022.4 -12.8-17.7
2018-Feb-08 21:00N 48°18' W 070°18'1313.4 300 / 71022.3 -11.9-17.7
2018-Feb-08 20:00N 48°24' W 070°36'8 8.0 260 / 111022.7 -10.6-17.5
2018-Feb-08 19:00N 48°24' W 070°48'0 0.0 260 / 61023.3 -9.6-15.9
2018-Feb-08 18:00N 48°24' W 070°48'   310 / 41023.9 -11.3-16.0

Dump ship's entire track history